createdAt,value
2023-05-05T00:00:35.712Z,12.70
2023-05-05T00:03:17.434Z,12.70
2023-05-05T00:05:52.350Z,12.60
2023-05-05T00:08:38.539Z,12.60
2023-05-05T00:11:23.880Z,12.80
2023-05-05T00:13:55.555Z,12.60
2023-05-05T00:16:24.567Z,12.50
2023-05-05T00:18:53.711Z,12.40
2023-05-05T00:21:25.171Z,12.30
2023-05-05T00:24:00.388Z,12.30
2023-05-05T00:26:42.990Z,12.20
2023-05-05T00:29:32.894Z,12.20
2023-05-05T00:32:01.742Z,12.10
2023-05-05T00:34:36.999Z,12.10
2023-05-05T00:37:07.508Z,12.30
2023-05-05T00:39:43.046Z,12.00
2023-05-05T00:42:22.590Z,11.90
2023-05-05T00:45:01.864Z,11.90
2023-05-05T00:47:34.718Z,11.80
2023-05-05T00:50:15.766Z,11.80
2023-05-05T00:52:58.541Z,11.80
2023-05-05T00:55:33.636Z,11.80
2023-05-05T00:58:08.283Z,11.80
2023-05-05T01:04:01.905Z,11.70
2023-05-05T01:06:46.807Z,11.70
2023-05-05T01:09:25.899Z,11.70
2023-05-05T01:12:11.203Z,11.60
2023-05-05T01:14:45.860Z,11.50
2023-05-05T01:17:21.471Z,11.50
2023-05-05T01:20:06.723Z,11.60
2023-05-05T01:22:45.460Z,11.60
2023-05-05T01:25:46.689Z,11.60
2023-05-05T01:28:34.785Z,11.60
2023-05-05T01:31:28.473Z,11.30
2023-05-05T01:34:08.245Z,11.50
2023-05-05T01:36:42.523Z,11.40
2023-05-05T01:39:21.243Z,11.40
2023-05-05T01:41:52.891Z,11.40
2023-05-05T01:44:22.010Z,11.40
2023-05-05T01:46:57.022Z,11.40
2023-05-05T01:49:30.875Z,11.30
2023-05-05T01:52:13.218Z,11.30
2023-05-05T01:54:46.728Z,11.20
2023-05-05T01:57:26.246Z,11.20
2023-05-05T02:00:14.844Z,11.20
2023-05-05T02:02:47.573Z,11.10
2023-05-05T02:08:16.860Z,11.10
2023-05-05T02:10:53.473Z,11.00
2023-05-05T02:13:24.969Z,10.90
2023-05-05T02:16:00.256Z,10.90
2023-05-05T02:18:31.057Z,10.80
2023-05-05T02:21:02.826Z,10.80
2023-05-05T02:23:34.913Z,10.80
2023-05-05T02:26:15.453Z,10.80
2023-05-05T02:28:53.701Z,10.70
2023-05-05T02:31:30.633Z,10.70
2023-05-05T02:34:02.986Z,10.70
2023-05-05T02:36:46.393Z,10.70
2023-05-05T02:39:26.492Z,10.70
2023-05-05T02:42:03.634Z,10.70
2023-05-05T02:44:40.587Z,10.60
2023-05-05T02:47:15.218Z,10.60
2023-05-05T02:49:48.990Z,10.70
2023-05-05T02:52:22.029Z,10.70
2023-05-05T02:57:57.455Z,10.80
2023-05-05T03:00:36.138Z,10.80
2023-05-05T03:03:18.831Z,10.80
2023-05-05T03:05:59.374Z,10.70
2023-05-05T03:08:41.976Z,10.80
2023-05-05T03:11:26.282Z,10.70
2023-05-05T03:14:12.201Z,10.70
2023-05-05T03:16:48.970Z,10.70
2023-05-05T03:19:22.010Z,10.80
2023-05-05T03:21:58.053Z,10.80
2023-05-05T03:24:34.539Z,10.80
2023-05-05T03:27:18.025Z,10.80
2023-05-05T03:29:49.820Z,10.80
2023-05-05T03:32:22.435Z,10.70
2023-05-05T03:34:54.050Z,10.70
2023-05-05T03:37:37.668Z,10.70
2023-05-05T03:42:58.630Z,10.70
2023-05-05T03:45:37.313Z,10.70
2023-05-05T03:48:09.822Z,10.60
2023-05-05T03:50:45.857Z,10.50
2023-05-05T03:53:22.751Z,10.50
2023-05-05T03:55:55.817Z,10.50
2023-05-05T03:58:26.937Z,10.50
2023-05-05T04:00:58.465Z,10.50
2023-05-05T04:03:30.205Z,10.50
2023-05-05T04:06:13.696Z,10.50
2023-05-05T04:08:48.626Z,10.50
2023-05-05T04:11:28.304Z,10.40
2023-05-05T04:13:59.920Z,10.50
2023-05-05T04:16:31.381Z,10.40
2023-05-05T04:19:04.434Z,10.40
2023-05-05T04:21:36.756Z,10.40
2023-05-05T04:24:10.405Z,10.40
2023-05-05T04:26:51.646Z,10.40
2023-05-05T04:29:24.459Z,10.50
2023-05-05T04:31:56.938Z,10.50
2023-05-05T04:34:32.572Z,10.50
2023-05-05T04:37:04.232Z,10.50
2023-05-05T04:39:50.654Z,10.60
2023-05-05T04:42:25.316Z,10.60
2023-05-05T04:44:57.310Z,10.70
2023-05-05T04:47:30.266Z,10.70
2023-05-05T04:50:06.542Z,10.80
2023-05-05T04:57:15.662Z,10.80
2023-05-05T04:59:53.641Z,11.00
2023-05-05T05:02:22.425Z,11.00
2023-05-05T05:05:22.579Z,11.10
2023-05-05T05:08:07.626Z,11.30
2023-05-05T05:11:20.757Z,11.20
2023-05-05T05:14:34.714Z,11.10
2023-05-05T05:33:43.250Z,11.60
2023-05-05T05:36:15.752Z,11.70
2023-05-05T05:38:48.560Z,11.80
2023-05-05T05:41:31.585Z,12.10
2023-05-05T05:44:12.020Z,12.20
2023-05-05T05:53:59.703Z,12.60
2023-05-05T06:01:02.709Z,13.00
2023-05-05T06:03:44.479Z,13.10
2023-05-05T06:06:21.924Z,13.10
2023-05-05T06:09:02.701Z,13.20
2023-05-05T06:11:53.861Z,13.20
2023-05-05T06:14:34.084Z,13.40
2023-05-05T06:17:05.081Z,13.50
2023-05-05T06:19:39.452Z,13.70
2023-05-05T06:22:10.355Z,13.90
2023-05-05T06:24:46.545Z,14.10
2023-05-05T06:27:32.212Z,14.20
2023-05-05T06:30:05.837Z,14.20
2023-05-05T06:32:42.610Z,14.50
2023-05-05T06:35:20.660Z,14.70
2023-05-05T06:37:48.998Z,14.70
2023-05-05T06:40:25.493Z,14.80
2023-05-05T06:42:59.832Z,15.00
2023-05-05T06:45:50.030Z,15.00
2023-05-05T06:48:30.577Z,14.90
2023-05-05T06:51:07.440Z,15.20
2023-05-05T06:53:47.934Z,15.20
2023-05-05T06:56:19.879Z,15.40
2023-05-05T06:58:51.412Z,15.50
2023-05-05T07:01:31.765Z,15.60
2023-05-05T07:04:05.116Z,15.70
2023-05-05T07:09:26.833Z,16.00
2023-05-05T07:12:04.455Z,16.30
2023-05-05T07:14:38.150Z,16.20
2023-05-05T07:17:25.841Z,16.40
2023-05-05T07:20:07.509Z,16.60
2023-05-05T07:22:49.267Z,16.70
2023-05-05T07:25:33.552Z,16.90
2023-05-05T07:28:16.715Z,17.10
2023-05-05T07:30:56.188Z,17.30
2023-05-05T07:33:40.687Z,17.50
2023-05-05T07:36:19.256Z,17.70
2023-05-05T07:38:51.920Z,17.80
2023-05-05T07:41:26.030Z,17.90
2023-05-05T07:44:04.061Z,18.10
2023-05-05T07:46:41.163Z,18.20
2023-05-05T07:49:31.279Z,18.50
2023-05-05T07:55:03.272Z,18.70
2023-05-05T07:57:37.173Z,18.90
2023-05-05T08:01:07.615Z,19.10
2023-05-05T08:14:14.721Z,19.80
2023-05-05T08:17:46.140Z,20.00
2023-05-05T08:25:18.683Z,20.60
2023-05-05T08:28:26.016Z,20.70
2023-05-05T08:52:43.502Z,22.20
2023-05-05T08:55:16.979Z,22.60
2023-05-05T08:58:20.051Z,22.70
2023-05-05T09:02:06.865Z,22.70
2023-05-05T09:09:03.592Z,23.30
2023-05-05T09:11:35.577Z,23.40
2023-05-05T09:55:44.645Z,24.40
2023-05-05T09:58:23.642Z,24.40
2023-05-05T10:00:52.639Z,24.50
2023-05-05T10:03:24.715Z,24.60
2023-05-05T10:05:54.356Z,24.60
2023-05-05T10:08:27.393Z,24.80
2023-05-05T10:11:05.030Z,24.60
2023-05-05T10:13:38.504Z,24.90
2023-05-05T10:16:13.652Z,25.00
2023-05-05T10:18:47.576Z,25.00
2023-05-05T10:21:28.874Z,25.00
2023-05-05T10:24:17.758Z,25.10
2023-05-05T10:27:07.790Z,25.10
2023-05-05T10:29:46.803Z,25.20
2023-05-05T10:32:51.548Z,25.30
2023-05-05T10:35:23.040Z,25.30
2023-05-05T10:37:51.786Z,25.40
2023-05-05T10:40:23.643Z,25.40
2023-05-05T10:42:56.425Z,25.40
2023-05-05T10:45:24.770Z,25.50
2023-05-05T10:47:54.925Z,25.60
2023-05-05T10:50:30.721Z,25.70
2023-05-05T10:53:17.791Z,25.80
2023-05-05T10:56:37.007Z,25.90
2023-05-05T10:59:44.872Z,26.10
2023-05-05T11:02:43.271Z,26.30
2023-05-05T11:05:21.078Z,26.50
2023-05-05T11:07:50.488Z,26.70
2023-05-05T11:10:37.941Z,26.80
2023-05-05T11:13:21.314Z,27.00
2023-05-05T11:20:18.504Z,27.30
2023-05-05T11:23:27.920Z,27.30
2023-05-05T11:43:05.982Z,30.20
2023-05-05T11:53:15.389Z,31.90
2023-05-05T11:56:59.364Z,32.50
2023-05-05T12:06:03.928Z,33.50
2023-05-05T12:08:39.989Z,34.00
2023-05-05T12:14:51.988Z,35.00
2023-05-05T12:17:24.345Z,35.40
2023-05-05T13:11:19.634Z,33.00
2023-05-05T13:13:48.253Z,33.10
2023-05-05T13:16:16.803Z,33.50
2023-05-05T13:18:46.164Z,34.00
2023-05-05T13:21:17.044Z,34.60
2023-05-05T13:23:46.140Z,35.30
2023-05-05T13:26:15.029Z,35.70
2023-05-05T13:28:44.721Z,36.10
2023-05-05T13:31:16.168Z,36.50
2023-05-05T13:33:44.420Z,36.50
2023-05-05T13:36:15.938Z,36.10
2023-05-05T13:38:44.136Z,35.70
2023-05-05T13:48:38.781Z,33.10
2023-05-05T14:13:32.393Z,30.80
2023-05-05T14:16:15.563Z,31.80
2023-05-05T14:18:45.154Z,32.60
2023-05-05T14:24:23.643Z,33.70
2023-05-05T14:26:55.804Z,34.10
2023-05-05T14:29:25.527Z,34.00
2023-05-05T14:31:53.802Z,33.70
2023-05-05T14:34:24.359Z,33.50
2023-05-05T14:36:52.571Z,33.30
2023-05-05T14:39:20.710Z,33.10
2023-05-05T14:41:48.952Z,33.10
2023-05-05T14:44:17.166Z,33.00
2023-05-05T14:46:47.582Z,32.90
2023-05-05T14:49:17.231Z,33.10
2023-05-05T14:51:45.424Z,33.10
2023-05-05T14:54:27.951Z,33.00
2023-05-05T14:56:59.945Z,33.20
2023-05-05T14:59:28.867Z,33.30
2023-05-05T15:01:58.875Z,33.30
2023-05-05T15:04:42.858Z,33.20
2023-05-05T15:07:11.300Z,33.10
2023-05-05T15:09:39.584Z,33.30
2023-05-05T15:12:08.476Z,33.30
2023-05-05T15:14:38.164Z,32.80
2023-05-05T15:17:08.038Z,33.00
2023-05-05T15:19:36.286Z,32.90
2023-05-05T15:22:04.574Z,32.80
2023-05-05T15:24:37.189Z,32.60
2023-05-05T15:27:05.647Z,32.40
2023-05-05T15:29:35.150Z,32.00
2023-05-05T15:32:03.573Z,31.70
2023-05-05T15:34:33.317Z,31.40
2023-05-05T15:37:03.937Z,31.10
2023-05-05T15:39:32.179Z,30.90
2023-05-05T15:42:03.740Z,30.80
2023-05-05T15:44:32.383Z,30.80
2023-05-05T15:47:02.759Z,30.80
2023-05-05T15:49:32.327Z,30.80
2023-05-05T15:52:00.747Z,30.70
2023-05-05T15:54:29.003Z,30.50
2023-05-05T15:56:57.217Z,30.30
2023-05-05T15:59:25.566Z,30.20
2023-05-05T16:01:53.995Z,29.90
2023-05-05T16:04:22.097Z,29.70
2023-05-05T16:06:51.741Z,29.40
2023-05-05T16:09:20.003Z,29.30
2023-05-05T16:11:48.417Z,29.10
2023-05-05T16:14:16.577Z,29.10
2023-05-05T16:16:45.032Z,29.00
2023-05-05T16:19:13.216Z,28.90
2023-05-05T16:21:41.378Z,28.80
2023-05-05T16:24:10.965Z,28.50
2023-05-05T16:26:39.155Z,28.30
2023-05-05T16:29:16.612Z,27.90
2023-05-05T16:31:44.755Z,27.70
2023-05-05T16:34:12.998Z,27.50
2023-05-05T16:36:42.463Z,27.30
2023-05-05T16:39:16.331Z,27.20
2023-05-05T16:41:44.595Z,27.00
2023-05-05T16:44:12.850Z,26.90
2023-05-05T16:46:43.211Z,26.80
2023-05-05T16:49:13.480Z,26.70
2023-05-05T16:51:41.672Z,26.50
2023-05-05T16:54:10.157Z,26.40
2023-05-05T16:56:39.817Z,26.30
2023-05-05T16:59:08.101Z,26.20
2023-05-05T17:01:38.492Z,26.00
2023-05-05T17:04:06.919Z,26.00
2023-05-05T17:06:35.504Z,25.90
2023-05-05T17:09:03.843Z,25.80
2023-05-05T17:11:31.988Z,25.70
2023-05-05T17:14:01.890Z,25.70
2023-05-05T17:16:30.221Z,25.60
2023-05-05T17:18:58.605Z,25.50
2023-05-05T17:21:26.912Z,25.40
2023-05-05T17:23:55.332Z,25.40
2023-05-05T17:26:24.216Z,25.30
2023-05-05T17:28:52.607Z,25.20
2023-05-05T17:31:22.434Z,25.10
2023-05-05T17:33:50.680Z,25.20
2023-05-05T17:36:18.834Z,25.00
2023-05-05T17:38:47.377Z,24.90
2023-05-05T17:41:15.538Z,24.90
2023-05-05T17:43:48.614Z,24.80
2023-05-05T17:46:18.072Z,24.80
2023-05-05T17:48:47.802Z,24.70
2023-05-05T17:51:16.337Z,24.60
2023-05-05T17:53:45.031Z,24.60
2023-05-05T17:56:13.461Z,24.50
2023-05-05T17:58:46.458Z,24.40
2023-05-05T18:01:22.393Z,24.40
2023-05-05T18:03:54.967Z,24.30
2023-05-05T18:06:23.327Z,24.30
2023-05-05T18:08:51.542Z,24.10
2023-05-05T18:11:34.071Z,24.00
2023-05-05T18:14:02.460Z,24.00
2023-05-05T18:16:31.040Z,23.80
2023-05-05T18:19:00.648Z,23.70
2023-05-05T18:21:29.898Z,23.50
2023-05-05T18:24:07.634Z,23.40
2023-05-05T18:26:40.062Z,23.30
2023-05-05T18:29:10.703Z,23.20
2023-05-05T18:31:39.123Z,23.10
2023-05-05T18:34:08.843Z,22.90
2023-05-05T18:36:37.102Z,22.80
2023-05-05T18:39:05.788Z,22.70
2023-05-05T18:41:35.665Z,22.60
2023-05-05T18:44:03.917Z,22.60
2023-05-05T18:46:32.242Z,22.50
2023-05-05T18:49:01.013Z,22.20
2023-05-05T18:51:30.830Z,22.40
2023-05-05T18:54:00.823Z,22.30
2023-05-05T18:56:29.459Z,22.30
2023-05-05T18:58:57.906Z,22.20
2023-05-05T19:01:26.429Z,22.20
2023-05-05T19:03:54.864Z,22.10
2023-05-05T19:06:25.503Z,22.10
2023-05-05T19:08:56.825Z,22.00
2023-05-05T19:11:25.407Z,22.00
2023-05-05T19:13:53.552Z,21.90
2023-05-05T19:16:21.924Z,21.90
2023-05-05T19:18:50.176Z,21.90
2023-05-05T19:21:18.461Z,21.80
2023-05-05T19:23:46.786Z,21.80
2023-05-05T19:26:16.434Z,22.00
2023-05-05T19:28:44.697Z,21.70
2023-05-05T19:31:12.978Z,21.70
2023-05-05T19:33:57.959Z,21.70
2023-05-05T19:36:27.736Z,21.70
2023-05-05T19:38:56.873Z,21.60
2023-05-05T19:41:26.702Z,21.60
2023-05-05T19:43:55.040Z,21.60
2023-05-05T19:46:25.573Z,21.60
2023-05-05T19:48:54.136Z,21.60
2023-05-05T19:51:22.384Z,21.60
2023-05-05T19:53:50.738Z,21.50
2023-05-05T19:56:19.007Z,21.50
2023-05-05T19:59:00.560Z,21.50
2023-05-05T20:01:29.707Z,21.50
2023-05-05T20:04:00.596Z,21.40
2023-05-05T20:06:28.946Z,21.40
2023-05-05T20:08:57.237Z,21.40
2023-05-05T20:11:26.830Z,21.30
2023-05-05T20:13:55.576Z,21.30
2023-05-05T20:16:25.730Z,21.20
2023-05-05T20:18:54.383Z,21.20
2023-05-05T20:21:22.649Z,21.20
2023-05-05T20:23:50.978Z,21.10
2023-05-05T20:26:19.373Z,21.10
2023-05-05T20:28:47.648Z,21.10
2023-05-05T20:31:16.129Z,21.00
2023-05-05T20:33:45.896Z,21.00
2023-05-05T20:36:14.069Z,21.00
2023-05-05T20:38:42.402Z,21.00
2023-05-05T20:41:10.791Z,20.90
2023-05-05T20:43:39.364Z,20.90
2023-05-05T20:46:12.204Z,20.90
2023-05-05T20:48:43.015Z,20.80
2023-05-05T20:51:13.076Z,20.80
2023-05-05T20:53:41.633Z,20.70
2023-05-05T20:56:09.890Z,20.60
2023-05-05T20:58:38.126Z,20.60
2023-05-05T21:01:06.389Z,20.60
2023-05-05T21:03:34.750Z,20.50
2023-05-05T21:06:03.439Z,20.50
2023-05-05T21:08:33.142Z,20.50
2023-05-05T21:11:01.625Z,20.40
2023-05-05T21:13:30.568Z,20.50
2023-05-05T21:15:58.761Z,20.40
2023-05-05T21:18:27.632Z,20.40
2023-05-05T21:20:56.297Z,20.30
2023-05-05T21:23:24.547Z,20.30
2023-05-05T21:25:54.287Z,20.30
2023-05-05T21:28:22.536Z,20.30
2023-05-05T21:31:10.125Z,20.20
2023-05-05T21:33:39.830Z,20.20
2023-05-05T21:36:08.289Z,20.10
2023-05-05T21:38:36.564Z,20.10
2023-05-05T21:41:06.399Z,20.10
2023-05-05T21:43:35.047Z,20.00
2023-05-05T21:46:04.756Z,20.00
2023-05-05T21:48:33.263Z,20.00
2023-05-05T21:51:01.542Z,19.90
2023-05-05T21:53:29.783Z,20.00
2023-05-05T21:55:58.324Z,19.90
2023-05-05T21:58:28.096Z,19.90
2023-05-05T22:00:56.478Z,19.90
2023-05-05T22:03:27.224Z,19.80
2023-05-05T22:05:55.520Z,19.80
2023-05-05T22:08:23.774Z,19.80
2023-05-05T22:10:54.199Z,19.80
2023-05-05T22:13:22.409Z,19.80
2023-05-05T22:15:54.668Z,19.70
2023-05-05T22:18:25.332Z,19.70
2023-05-05T22:20:53.607Z,19.60
2023-05-05T22:23:21.780Z,19.60
2023-05-05T22:25:50.377Z,19.60
2023-05-05T22:28:18.598Z,19.50
2023-05-05T22:30:49.357Z,19.50
2023-05-05T22:33:19.010Z,19.50
2023-05-05T22:35:47.380Z,19.50
2023-05-05T22:38:15.719Z,19.50
2023-05-05T22:40:43.943Z,19.50
2023-05-05T22:43:12.083Z,19.50
2023-05-05T22:45:42.492Z,19.50
2023-05-05T22:48:11.271Z,19.60
2023-05-05T22:50:41.396Z,19.50
2023-05-05T22:53:09.642Z,19.50
2023-05-05T22:55:37.841Z,19.50
2023-05-05T22:58:06.244Z,19.40
2023-05-05T23:00:34.447Z,19.40
2023-05-05T23:03:02.668Z,19.40
2023-05-05T23:05:30.843Z,19.40
2023-05-05T23:08:01.341Z,19.30
2023-05-05T23:10:30.450Z,19.20
2023-05-05T23:12:58.734Z,19.20
2023-05-05T23:15:27.027Z,19.20
2023-05-05T23:17:55.356Z,19.10
2023-05-05T23:20:23.822Z,19.00
2023-05-05T23:22:52.096Z,18.90
2023-05-05T23:25:21.782Z,18.90
2023-05-05T23:27:50.665Z,18.80
2023-05-05T23:30:19.083Z,18.70
2023-05-05T23:32:47.279Z,18.70
2023-05-05T23:35:15.552Z,18.60
2023-05-05T23:37:43.988Z,18.60
2023-05-05T23:40:12.550Z,18.50
2023-05-05T23:42:42.257Z,18.40
2023-05-05T23:45:11.965Z,18.40
2023-05-05T23:47:40.426Z,18.30
2023-05-05T23:50:14.207Z,18.20
2023-05-05T23:52:42.837Z,18.20
2023-05-05T23:55:11.723Z,18.10
2023-05-05T23:57:41.616Z,18.00
